createdAt,value
2022-09-17T00:01:04.542Z,5.10
2022-09-17T00:03:33.086Z,5.10
2022-09-17T00:06:06.100Z,1.67
2022-09-17T00:08:33.617Z,5.40
2022-09-17T00:11:16.266Z,3.23
2022-09-17T00:13:44.349Z,4.63
2022-09-17T00:16:12.273Z,3.33
2022-09-17T00:18:41.741Z,3.90
2022-09-17T00:21:17.179Z,6.00
2022-09-17T00:23:44.238Z,3.90
2022-09-17T00:26:10.982Z,4.00
2022-09-17T00:28:37.655Z,4.00
2022-09-17T00:31:10.832Z,3.73
2022-09-17T00:33:37.521Z,4.30
2022-09-17T00:36:06.379Z,4.37
2022-09-17T00:38:33.595Z,3.00
2022-09-17T00:41:00.830Z,7.03
2022-09-17T00:43:36.116Z,4.27
2022-09-17T00:46:04.708Z,5.83
2022-09-17T00:48:31.749Z,8.53
2022-09-17T00:51:01.333Z,4.47
2022-09-17T00:53:28.632Z,6.03
2022-09-17T00:56:03.879Z,3.60
2022-09-17T00:58:36.715Z,6.97
2022-09-17T01:01:06.013Z,5.40
2022-09-17T01:03:33.295Z,3.43
2022-09-17T01:06:10.857Z,9.70
2022-09-17T01:08:55.296Z,6.73
2022-09-17T01:11:52.102Z,9.10
2022-09-17T01:14:46.463Z,8.20
2022-09-17T01:17:42.973Z,9.20
2022-09-17T01:20:43.776Z,10.63
2022-09-17T01:23:44.627Z,9.10
2022-09-17T01:26:50.064Z,10.57
2022-09-17T01:29:48.154Z,5.97
2022-09-17T01:32:31.638Z,6.63
2022-09-17T01:35:14.909Z,6.90
2022-09-17T01:37:56.702Z,15.07
2022-09-17T01:40:34.711Z,7.50
2022-09-17T01:43:24.583Z,8.47
2022-09-17T01:45:56.497Z,10.73
2022-09-17T01:48:29.544Z,6.20
2022-09-17T01:51:11.330Z,9.00
2022-09-17T01:54:00.456Z,7.13
2022-09-17T01:56:48.359Z,7.73
2022-09-17T01:59:41.104Z,8.33
2022-09-17T02:02:14.058Z,10.07
2022-09-17T02:04:51.371Z,4.40
2022-09-17T02:07:23.398Z,16.40
2022-09-17T02:10:03.880Z,10.33
2022-09-17T02:12:36.350Z,10.40
2022-09-17T02:15:20.277Z,12.00
2022-09-17T02:17:52.205Z,8.17
2022-09-17T02:20:23.703Z,7.07
2022-09-17T02:22:56.737Z,6.37
2022-09-17T02:25:33.435Z,10.23
2022-09-17T02:28:08.576Z,11.27
2022-09-17T02:30:35.286Z,9.67
2022-09-17T02:33:04.842Z,11.77
2022-09-17T02:35:32.205Z,19.20
2022-09-17T02:37:59.498Z,11.60
2022-09-17T02:40:29.068Z,8.27
2022-09-17T02:43:11.937Z,13.67
2022-09-17T02:46:00.047Z,12.43
2022-09-17T02:48:41.204Z,13.73
2022-09-17T02:51:52.859Z,8.03
2022-09-17T02:54:28.553Z,13.80
2022-09-17T02:57:08.721Z,10.17
2022-09-17T03:00:15.493Z,6.57
2022-09-17T03:02:56.626Z,13.43
2022-09-17T03:05:24.591Z,7.27
2022-09-17T03:07:51.539Z,9.33
2022-09-17T03:10:18.719Z,8.67
2022-09-17T03:12:45.327Z,12.43
2022-09-17T03:15:11.869Z,11.00
2022-09-17T03:17:38.435Z,10.67
2022-09-17T03:20:05.681Z,8.13
2022-09-17T03:22:32.951Z,13.57
2022-09-17T03:24:59.503Z,10.20
2022-09-17T03:27:26.124Z,12.63
2022-09-17T03:29:52.666Z,9.03
2022-09-17T03:32:19.322Z,9.67
2022-09-17T03:34:46.916Z,5.90
2022-09-17T03:37:13.770Z,12.97
2022-09-17T03:39:40.314Z,10.70
2022-09-17T03:42:07.045Z,7.53
2022-09-17T03:44:33.591Z,8.03
2022-09-17T03:47:00.176Z,10.10
2022-09-17T03:49:26.903Z,13.57
2022-09-17T03:51:53.458Z,7.90
2022-09-17T03:54:20.059Z,9.97
2022-09-17T03:56:46.660Z,13.07
2022-09-17T03:59:13.260Z,11.77
2022-09-17T04:01:39.970Z,9.97
2022-09-17T04:04:06.713Z,6.00
2022-09-17T04:06:33.302Z,11.50
2022-09-17T04:09:00.942Z,11.53
2022-09-17T04:11:27.665Z,7.80
2022-09-17T04:13:54.205Z,11.90
2022-09-17T04:16:20.789Z,10.17
2022-09-17T04:18:47.550Z,13.30
2022-09-17T04:21:14.107Z,11.07
2022-09-17T04:23:40.650Z,16.67
2022-09-17T04:26:07.214Z,15.63
2022-09-17T04:28:33.893Z,11.53
2022-09-17T04:31:00.531Z,10.47
2022-09-17T04:33:27.153Z,13.57
2022-09-17T04:35:54.229Z,17.67
2022-09-17T04:38:22.080Z,11.60
2022-09-17T04:40:48.865Z,16.67
2022-09-17T04:43:15.498Z,9.33
2022-09-17T04:45:44.809Z,9.93
2022-09-17T04:48:11.353Z,13.83
2022-09-17T04:50:37.925Z,13.00
2022-09-17T04:53:04.619Z,8.47
2022-09-17T04:55:31.286Z,9.27
2022-09-17T04:57:58.010Z,15.50
2022-09-17T05:00:25.141Z,12.90
2022-09-17T05:02:54.047Z,16.73
2022-09-17T05:05:20.995Z,15.57
2022-09-17T05:07:47.717Z,12.33
2022-09-17T05:10:17.564Z,8.87
2022-09-17T05:12:55.095Z,14.13
2022-09-17T05:15:23.195Z,14.30
2022-09-17T05:17:50.326Z,14.03
2022-09-17T05:20:17.760Z,13.60
2022-09-17T05:22:49.867Z,14.30
2022-09-17T05:25:18.653Z,16.50
2022-09-17T05:27:45.848Z,9.23
2022-09-17T05:30:13.071Z,8.47
2022-09-17T05:32:40.638Z,11.03
2022-09-17T05:35:08.401Z,11.23
2022-09-17T05:37:35.379Z,11.17
2022-09-17T05:40:03.882Z,10.10
2022-09-17T05:42:30.594Z,13.13
2022-09-17T05:44:57.191Z,17.10
2022-09-17T05:47:26.929Z,13.37
2022-09-17T05:49:53.728Z,11.53
2022-09-17T05:52:20.447Z,19.93
2022-09-17T05:54:47.129Z,9.10
2022-09-17T05:57:15.831Z,6.90
2022-09-17T05:59:42.493Z,14.97
2022-09-17T06:02:13.323Z,8.90
2022-09-17T06:04:40.045Z,14.60
2022-09-17T06:07:09.071Z,14.50
2022-09-17T06:09:37.416Z,9.93
2022-09-17T06:12:05.289Z,14.20
2022-09-17T06:14:31.853Z,13.80
2022-09-17T06:16:58.412Z,12.20
2022-09-17T06:19:25.010Z,10.93
2022-09-17T06:21:51.803Z,17.50
2022-09-17T06:24:18.371Z,10.23
2022-09-17T06:26:45.276Z,11.73
2022-09-17T06:29:14.993Z,16.47
2022-09-17T06:31:44.577Z,11.53
2022-09-17T06:34:11.897Z,11.73
2022-09-17T06:36:38.486Z,11.33
2022-09-17T06:39:05.295Z,9.67
2022-09-17T06:41:32.030Z,7.33
2022-09-17T06:43:58.842Z,12.47
2022-09-17T06:46:25.620Z,12.13
2022-09-17T06:48:52.195Z,11.47
2022-09-17T06:51:18.824Z,9.57
2022-09-17T06:53:45.513Z,13.60
2022-09-17T06:56:12.212Z,7.37
2022-09-17T06:58:41.417Z,9.93
2022-09-17T07:01:08.953Z,8.50
2022-09-17T07:03:35.658Z,11.97
2022-09-17T07:06:02.965Z,13.97
2022-09-17T07:08:31.635Z,6.97
2022-09-17T07:10:58.859Z,11.10
2022-09-17T07:13:25.738Z,8.57
2022-09-17T07:15:57.594Z,10.47
2022-09-17T07:18:25.137Z,8.27
2022-09-17T07:21:00.194Z,6.90
2022-09-17T07:23:29.365Z,5.90
2022-09-17T07:25:58.151Z,8.67
2022-09-17T07:28:25.641Z,7.27
2022-09-17T07:30:53.141Z,12.20
2022-09-17T07:33:23.365Z,5.30
2022-09-17T07:35:54.591Z,13.53
2022-09-17T07:38:21.466Z,8.70
2022-09-17T07:41:15.523Z,11.57
2022-09-17T07:43:43.379Z,14.37
2022-09-17T07:46:20.440Z,9.07
2022-09-17T07:48:47.992Z,10.70
2022-09-17T07:51:22.787Z,9.53
2022-09-17T07:53:57.821Z,6.33
2022-09-17T07:56:25.708Z,7.73
2022-09-17T07:58:52.431Z,7.40
2022-09-17T08:01:21.165Z,11.10
2022-09-17T08:03:52.510Z,6.40
2022-09-17T08:06:26.077Z,5.13
2022-09-17T08:13:34.214Z,9.53
2022-09-17T08:16:06.420Z,9.53
2022-09-17T08:18:33.384Z,6.83
2022-09-17T08:21:01.829Z,7.17
2022-09-17T08:23:30.242Z,10.03
2022-09-17T08:25:59.361Z,5.13
2022-09-17T08:28:28.410Z,10.20
2022-09-17T08:30:59.689Z,4.30
2022-09-17T08:33:26.340Z,7.73
2022-09-17T08:35:59.389Z,8.53
2022-09-17T08:38:33.479Z,8.97
2022-09-17T08:41:10.230Z,8.77
2022-09-17T08:44:07.346Z,4.20
2022-09-17T08:46:47.680Z,7.60
2022-09-17T08:49:23.386Z,6.67
2022-09-17T08:51:59.589Z,7.13
2022-09-17T08:54:40.661Z,10.63
2022-09-17T08:57:18.376Z,7.53
2022-09-17T09:00:09.882Z,5.17
2022-09-17T09:02:56.069Z,7.47
2022-09-17T09:05:37.103Z,7.13
2022-09-17T09:08:10.869Z,6.13
2022-09-17T09:10:49.870Z,5.80
2022-09-17T09:13:19.438Z,13.43
2022-09-17T09:15:55.142Z,3.43
2022-09-17T09:18:25.065Z,6.40
2022-09-17T09:21:10.461Z,5.67
2022-09-17T09:24:00.542Z,7.97
2022-09-17T09:26:40.321Z,6.10
2022-09-17T09:29:25.766Z,8.30
2022-09-17T09:32:34.500Z,7.63
2022-09-17T09:35:11.841Z,7.33
2022-09-17T09:37:42.982Z,7.23
2022-09-17T09:40:41.896Z,11.47
2022-09-17T09:43:19.432Z,3.70
2022-09-17T09:46:15.478Z,5.07
2022-09-17T09:49:06.936Z,4.43
2022-09-17T09:52:13.651Z,3.87
2022-09-17T09:55:02.209Z,5.77
2022-09-17T09:57:39.658Z,6.60
2022-09-17T10:00:29.936Z,4.70
2022-09-17T10:03:35.843Z,5.27
2022-09-17T10:06:06.066Z,3.60
2022-09-17T10:08:37.891Z,5.57
2022-09-17T10:11:13.745Z,6.20
2022-09-17T10:13:41.574Z,7.57
2022-09-17T10:16:17.726Z,3.00
2022-09-17T10:18:48.390Z,7.87
2022-09-17T10:21:41.328Z,3.10
2022-09-17T10:24:28.710Z,3.13
2022-09-17T10:27:05.521Z,2.53
2022-09-17T10:29:33.154Z,5.50
2022-09-17T10:32:00.407Z,6.47
2022-09-17T10:34:29.384Z,5.30
2022-09-17T10:36:57.150Z,7.20
2022-09-17T10:39:26.650Z,4.07
2022-09-17T10:42:04.687Z,7.57
2022-09-17T10:44:36.770Z,8.40
2022-09-17T10:47:18.856Z,4.53
2022-09-17T10:49:56.194Z,9.27
2022-09-17T10:52:47.538Z,5.80
2022-09-17T10:55:42.076Z,7.03
2022-09-17T10:58:08.608Z,4.27
2022-09-17T11:01:03.089Z,7.03
2022-09-17T11:04:07.916Z,2.53
2022-09-17T11:06:40.452Z,3.50
2022-09-17T11:09:26.637Z,1.83
2022-09-17T11:12:32.113Z,6.00
2022-09-17T11:15:25.237Z,3.60
2022-09-17T11:18:12.455Z,4.00
2022-09-17T11:21:23.886Z,4.17
2022-09-17T11:23:59.017Z,2.60
2022-09-17T11:26:45.437Z,2.90
2022-09-17T11:29:30.693Z,1.57
2022-09-17T11:32:06.255Z,2.97
2022-09-17T11:34:47.015Z,3.83
2022-09-17T11:37:22.593Z,6.03
2022-09-17T11:39:57.301Z,3.60
2022-09-17T11:42:46.554Z,2.70
2022-09-17T11:45:24.733Z,2.80
2022-09-17T11:48:09.441Z,3.37
2022-09-17T11:50:44.317Z,2.67
2022-09-17T11:53:24.995Z,2.63
2022-09-17T11:55:57.386Z,3.17
2022-09-17T11:58:39.432Z,1.23
2022-09-17T12:01:15.959Z,2.03
2022-09-17T12:03:56.157Z,3.57
2022-09-17T12:06:57.581Z,2.47
2022-09-17T12:09:28.056Z,4.63
2022-09-17T12:12:47.659Z,3.10
2022-09-17T12:15:22.418Z,2.50
2022-09-17T12:18:31.864Z,2.93
2022-09-17T12:21:01.736Z,5.17
2022-09-17T12:23:42.182Z,2.10
2022-09-17T12:26:15.593Z,4.33
2022-09-17T12:29:00.951Z,1.37
2022-09-17T12:31:35.122Z,5.73
2022-09-17T12:34:35.405Z,1.23
2022-09-17T12:37:19.654Z,3.87
2022-09-17T12:40:20.445Z,1.23
2022-09-17T12:43:15.030Z,1.77
2022-09-17T12:46:02.314Z,0.57
2022-09-17T12:48:47.522Z,1.17
2022-09-17T12:51:23.392Z,0.97
2022-09-17T12:54:10.357Z,2.00
2022-09-17T12:57:07.465Z,2.53
2022-09-17T12:59:39.156Z,2.40
2022-09-17T13:02:41.389Z,2.27
2022-09-17T13:05:22.813Z,4.10
2022-09-17T13:08:01.889Z,2.93
2022-09-17T13:10:43.503Z,1.70
2022-09-17T13:13:30.106Z,2.07
2022-09-17T13:16:19.897Z,2.90
2022-09-17T13:19:18.930Z,3.53
2022-09-17T13:22:16.927Z,1.13
2022-09-17T13:27:31.190Z,2.13
2022-09-17T13:29:58.430Z,3.70
2022-09-17T13:32:34.547Z,2.43
2022-09-17T13:35:09.889Z,1.97
2022-09-17T13:37:40.265Z,1.00
2022-09-17T13:40:22.561Z,3.03
2022-09-17T13:42:55.370Z,2.93
2022-09-17T13:45:23.210Z,1.97
2022-09-17T13:48:02.864Z,2.47
2022-09-17T13:50:33.845Z,1.93
2022-09-17T13:53:12.521Z,2.60
2022-09-17T13:55:48.910Z,5.30
2022-09-17T13:58:18.567Z,1.83
2022-09-17T14:00:54.387Z,3.80
2022-09-17T14:03:40.621Z,2.67
2022-09-17T14:06:17.973Z,5.93
2022-09-17T14:08:44.542Z,2.80
2022-09-17T14:11:23.474Z,2.23
2022-09-17T14:13:51.820Z,4.47
2022-09-17T14:16:36.940Z,2.07
2022-09-17T14:19:15.684Z,1.27
2022-09-17T14:22:05.731Z,3.17
2022-09-17T14:24:48.794Z,4.23
2022-09-17T14:27:15.430Z,2.83
2022-09-17T14:29:58.584Z,3.03
2022-09-17T14:32:32.248Z,2.23
2022-09-17T14:35:02.343Z,4.50
2022-09-17T14:37:29.341Z,1.93
2022-09-17T14:39:56.134Z,2.53
2022-09-17T14:42:30.982Z,3.07
2022-09-17T14:45:02.197Z,1.10
2022-09-17T14:47:28.851Z,5.00
2022-09-17T14:49:55.435Z,2.00
2022-09-17T14:52:30.462Z,2.73
2022-09-17T14:55:15.911Z,2.50
2022-09-17T14:57:45.792Z,3.50
2022-09-17T15:00:24.349Z,3.90
2022-09-17T15:02:55.778Z,4.00
2022-09-17T15:05:27.110Z,1.57
2022-09-17T15:08:10.342Z,6.57
2022-09-17T15:10:46.986Z,4.90
2022-09-17T15:13:23.582Z,1.77
2022-09-17T15:15:59.220Z,3.83
2022-09-17T15:18:57.217Z,4.10
2022-09-17T15:21:41.257Z,4.73
2022-09-17T15:24:37.461Z,4.23
2022-09-17T15:27:28.503Z,3.67
2022-09-17T15:30:20.220Z,6.10
2022-09-17T15:33:00.842Z,3.80
2022-09-17T15:35:30.705Z,3.40
2022-09-17T15:38:23.235Z,6.30
2022-09-17T15:40:51.599Z,4.43
2022-09-17T15:43:33.778Z,9.07
2022-09-17T15:46:29.396Z,4.97
2022-09-17T15:48:59.158Z,7.33
2022-09-17T15:51:35.434Z,4.37
2022-09-17T15:54:05.463Z,5.77
2022-09-17T15:56:37.997Z,2.77
2022-09-17T15:59:26.382Z,7.57
2022-09-17T16:01:55.660Z,6.70
2022-09-17T16:04:26.889Z,3.77
2022-09-17T16:06:57.390Z,8.63
2022-09-17T16:09:48.766Z,7.37
2022-09-17T16:12:24.114Z,4.00
2022-09-17T16:14:53.536Z,6.47
2022-09-17T16:17:24.843Z,4.40
2022-09-17T16:19:51.665Z,3.10
2022-09-17T16:22:18.261Z,2.90
2022-09-17T16:24:44.809Z,0.87
2022-09-17T16:27:17.978Z,5.10
2022-09-17T16:29:44.509Z,2.43
2022-09-17T16:32:11.386Z,1.67
2022-09-17T16:34:37.996Z,2.83
2022-09-17T16:37:04.604Z,1.33
2022-09-17T16:39:31.112Z,2.03
2022-09-17T16:41:57.762Z,4.90
2022-09-17T16:44:24.284Z,2.93
2022-09-17T16:46:50.910Z,3.83
2022-09-17T16:49:17.525Z,3.73
2022-09-17T16:51:44.111Z,4.07
2022-09-17T16:54:10.738Z,2.13
2022-09-17T16:56:37.251Z,4.10
2022-09-17T16:59:04.070Z,5.40
2022-09-17T17:01:32.302Z,6.43
2022-09-17T17:04:00.879Z,1.53
2022-09-17T17:06:27.591Z,5.47
2022-09-17T17:08:54.372Z,4.87
2022-09-17T17:11:21.104Z,2.03
2022-09-17T17:13:47.812Z,3.27
2022-09-17T17:16:15.410Z,2.87
2022-09-17T17:18:43.890Z,2.67
2022-09-17T17:21:12.550Z,4.57
2022-09-17T17:23:43.335Z,3.70
2022-09-17T17:26:09.999Z,3.20
2022-09-17T17:28:36.645Z,2.43
2022-09-17T17:31:04.313Z,4.07
2022-09-17T17:33:30.920Z,2.83
2022-09-17T17:36:05.320Z,5.13
2022-09-17T17:38:34.174Z,3.97
2022-09-17T17:41:13.538Z,5.90
2022-09-17T17:43:41.222Z,5.10
2022-09-17T17:46:09.783Z,3.60
2022-09-17T17:48:36.763Z,9.97
2022-09-17T17:51:09.385Z,4.63
2022-09-17T17:53:36.523Z,8.27
2022-09-17T17:56:06.410Z,7.27
2022-09-17T17:58:34.125Z,5.73
2022-09-17T18:01:00.888Z,4.60
2022-09-17T18:03:27.467Z,6.87
2022-09-17T18:05:57.869Z,6.43
2022-09-17T18:08:24.929Z,4.40
2022-09-17T18:10:56.211Z,7.13
2022-09-17T18:13:23.697Z,5.73
2022-09-17T18:15:55.558Z,5.03
2022-09-17T18:18:23.706Z,3.23
2022-09-17T18:20:51.704Z,5.60
2022-09-17T18:23:18.628Z,9.93
2022-09-17T18:25:55.990Z,4.87
2022-09-17T18:28:23.114Z,3.57
2022-09-17T18:30:50.450Z,6.40
2022-09-17T18:33:19.253Z,3.27
2022-09-17T18:35:46.592Z,2.90
2022-09-17T18:38:15.946Z,5.60
2022-09-17T18:40:43.303Z,8.13
2022-09-17T18:43:10.302Z,5.97
2022-09-17T18:45:36.826Z,3.13
2022-09-17T18:48:05.858Z,4.00
2022-09-17T18:50:32.641Z,4.27
2022-09-17T18:52:59.311Z,5.30
2022-09-17T18:55:26.537Z,4.23
2022-09-17T18:57:53.549Z,6.23
2022-09-17T19:00:21.197Z,4.63
2022-09-17T19:02:48.794Z,7.23
2022-09-17T19:05:16.951Z,9.17
2022-09-17T19:07:45.350Z,9.20
2022-09-17T19:10:12.917Z,8.30
2022-09-17T19:12:39.866Z,3.40
2022-09-17T19:15:08.407Z,10.93
2022-09-17T19:17:35.021Z,4.10
2022-09-17T19:20:02.100Z,3.17
2022-09-17T19:22:28.703Z,4.33
2022-09-17T19:24:55.240Z,4.57
2022-09-17T19:27:21.758Z,4.27
2022-09-17T19:29:48.384Z,3.63
2022-09-17T19:32:14.969Z,4.47
2022-09-17T19:34:42.554Z,2.73
2022-09-17T19:37:09.168Z,3.67
2022-09-17T19:39:35.764Z,4.07
2022-09-17T19:42:02.342Z,3.33
2022-09-17T19:44:29.580Z,4.20
2022-09-17T19:46:56.309Z,6.80
2022-09-17T19:49:22.884Z,1.47
2022-09-17T19:51:49.474Z,7.27
2022-09-17T19:54:16.045Z,6.77
2022-09-17T19:56:42.616Z,2.00
2022-09-17T19:59:09.223Z,2.67
2022-09-17T20:01:35.887Z,3.73
2022-09-17T20:04:03.277Z,1.97
2022-09-17T20:06:33.358Z,3.13
2022-09-17T20:09:00.528Z,3.03
2022-09-17T20:11:27.532Z,5.37
2022-09-17T20:14:07.688Z,1.80
2022-09-17T20:16:36.431Z,4.53
2022-09-17T20:19:03.481Z,8.93
2022-09-17T20:21:30.291Z,7.43
2022-09-17T20:23:58.341Z,8.10
2022-09-17T20:26:26.370Z,4.37
2022-09-17T20:28:53.346Z,5.03
2022-09-17T20:31:23.202Z,4.40
2022-09-17T20:33:54.443Z,4.53
2022-09-17T20:36:26.173Z,4.27
2022-09-17T20:41:40.493Z,4.30
2022-09-17T20:44:07.582Z,3.20
2022-09-17T20:46:34.285Z,7.70
2022-09-17T20:49:00.993Z,2.63
2022-09-17T20:51:29.749Z,9.87
2022-09-17T20:53:57.631Z,7.03
2022-09-17T20:56:30.174Z,4.37
2022-09-17T20:59:03.917Z,8.83
2022-09-17T21:01:34.516Z,7.20
2022-09-17T21:04:02.575Z,5.90
2022-09-17T21:06:31.819Z,6.73
2022-09-17T21:09:01.804Z,4.23
2022-09-17T21:11:29.812Z,3.77
2022-09-17T21:13:56.632Z,3.37
2022-09-17T21:16:23.353Z,5.13
2022-09-17T21:18:56.482Z,11.53
2022-09-17T21:21:23.419Z,8.23
2022-09-17T21:23:50.741Z,6.30
2022-09-17T21:26:22.826Z,3.47
2022-09-17T21:28:51.526Z,7.47
2022-09-17T21:31:26.284Z,6.33
2022-09-17T21:34:00.427Z,6.33
2022-09-17T21:36:29.022Z,6.00
2022-09-17T21:39:29.487Z,3.50
2022-09-17T21:41:56.002Z,7.03
2022-09-17T21:44:22.590Z,6.23
2022-09-17T21:46:49.631Z,5.43
2022-09-17T21:49:17.330Z,9.37
2022-09-17T21:51:43.985Z,6.87
2022-09-17T21:54:18.585Z,6.87
2022-09-17T21:56:45.841Z,3.13
2022-09-17T21:59:14.476Z,14.17
2022-09-17T22:01:46.826Z,2.90
2022-09-17T22:04:18.702Z,3.43
2022-09-17T22:06:46.873Z,6.63
2022-09-17T22:09:17.581Z,4.87
2022-09-17T22:11:44.150Z,8.10
2022-09-17T22:14:13.909Z,3.97
2022-09-17T22:16:43.661Z,6.97
2022-09-17T22:19:14.664Z,5.00
2022-09-17T22:21:45.860Z,5.53
2022-09-17T22:24:13.693Z,5.77
2022-09-17T22:26:45.844Z,4.60
2022-09-17T22:29:18.486Z,4.00
2022-09-17T22:31:46.368Z,6.17
2022-09-17T22:34:15.862Z,7.37
2022-09-17T22:36:42.870Z,13.33
2022-09-17T22:39:09.886Z,3.33
2022-09-17T22:41:42.709Z,4.10
2022-09-17T22:44:12.513Z,3.07
2022-09-17T22:46:39.968Z,9.77
2022-09-17T22:49:08.178Z,7.97
2022-09-17T22:51:34.752Z,7.10
2022-09-17T22:54:01.639Z,3.03
2022-09-17T22:56:29.764Z,10.37
2022-09-17T22:58:57.805Z,8.37
2022-09-17T23:01:31.069Z,6.37
2022-09-17T23:03:58.673Z,5.37
2022-09-17T23:06:27.933Z,6.33
2022-09-17T23:08:55.136Z,5.00
2022-09-17T23:11:24.635Z,4.40
2022-09-17T23:13:51.919Z,4.13
2022-09-17T23:16:19.644Z,6.37
2022-09-17T23:18:46.513Z,4.07
2022-09-17T23:21:17.226Z,5.33
2022-09-17T23:23:46.418Z,4.10
2022-09-17T23:26:15.625Z,7.53
2022-09-17T23:28:42.361Z,6.37
2022-09-17T23:31:20.449Z,2.90
2022-09-17T23:33:48.283Z,5.53
2022-09-17T23:36:21.572Z,9.37
2022-09-17T23:38:49.645Z,10.00
2022-09-17T23:41:25.877Z,6.03
2022-09-17T23:43:54.901Z,8.30
2022-09-17T23:46:23.440Z,7.57
2022-09-17T23:48:51.579Z,5.77
2022-09-17T23:51:18.202Z,3.53
2022-09-17T23:53:45.080Z,3.77
2022-09-17T23:56:14.831Z,8.20
2022-09-17T23:58:42.061Z,4.00
